sensor_id;sensor_type;location;lat;lon;timestamp;temperature;humidity
44477;DHT22;30180;44.788;10.366;2022-10-22T00:01:14;20.70;73.40
44477;DHT22;30180;44.788;10.366;2022-10-22T00:03:43;20.70;73.40
44477;DHT22;30180;44.788;10.366;2022-10-22T00:06:11;20.70;73.40
44477;DHT22;30180;44.788;10.366;2022-10-22T00:08:40;20.70;73.40
44477;DHT22;30180;44.788;10.366;2022-10-22T00:11:09;20.70;73.40
44477;DHT22;30180;44.788;10.366;2022-10-22T00:13:38;20.70;73.40
44477;DHT22;30180;44.788;10.366;2022-10-22T00:16:06;20.70;73.40
44477;DHT22;30180;44.788;10.366;2022-10-22T00:18:35;20.70;73.40
44477;DHT22;30180;44.788;10.366;2022-10-22T00:21:06;20.70;73.40
44477;DHT22;30180;44.788;10.366;2022-10-22T00:23:34;20.70;73.40
44477;DHT22;30180;44.788;10.366;2022-10-22T00:26:03;20.70;73.40
44477;DHT22;30180;44.788;10.366;2022-10-22T00:28:31;20.70;73.40
44477;DHT22;30180;44.788;10.366;2022-10-22T00:31:00;20.70;73.40
44477;DHT22;30180;44.788;10.366;2022-10-22T00:33:28;20.70;73.40
44477;DHT22;30180;44.788;10.366;2022-10-22T00:35:57;20.70;73.40
44477;DHT22;30180;44.788;10.366;2022-10-22T00:38:27;20.70;73.40
44477;DHT22;30180;44.788;10.366;2022-10-22T00:40:55;20.70;73.40
44477;DHT22;30180;44.788;10.366;2022-10-22T00:43:23;20.70;73.40
44477;DHT22;30180;44.788;10.366;2022-10-22T00:45:51;20.70;73.40
44477;DHT22;30180;44.788;10.366;2022-10-22T00:48:22;20.70;73.40
44477;DHT22;30180;44.788;10.366;2022-10-22T00:50:54;20.70;73.40
44477;DHT22;30180;44.788;10.366;2022-10-22T00:53:28;20.70;73.50
44477;DHT22;30180;44.788;10.366;2022-10-22T00:55:57;20.70;73.40
44477;DHT22;30180;44.788;10.366;2022-10-22T00:58:27;20.70;73.50
44477;DHT22;30180;44.788;10.366;2022-10-22T01:00:58;20.70;73.50
44477;DHT22;30180;44.788;10.366;2022-10-22T01:03:26;20.70;73.50
44477;DHT22;30180;44.788;10.366;2022-10-22T01:05:56;20.70;73.60
44477;DHT22;30180;44.788;10.366;2022-10-22T01:08:31;20.60;73.40
44477;DHT22;30180;44.788;10.366;2022-10-22T01:11:14;20.70;73.50
44477;DHT22;30180;44.788;10.366;2022-10-22T01:13:48;20.70;73.50
44477;DHT22;30180;44.788;10.366;2022-10-22T01:16:24;20.60;73.40
44477;DHT22;30180;44.788;10.366;2022-10-22T01:19:04;20.70;73.50
44477;DHT22;30180;44.788;10.366;2022-10-22T01:21:42;20.60;73.40
44477;DHT22;30180;44.788;10.366;2022-10-22T01:24:24;20.70;73.50
44477;DHT22;30180;44.788;10.366;2022-10-22T01:27:15;20.70;73.50
44477;DHT22;30180;44.788;10.366;2022-10-22T01:29:49;20.60;73.40
44477;DHT22;30180;44.788;10.366;2022-10-22T01:32:22;20.60;73.40
44477;DHT22;30180;44.788;10.366;2022-10-22T01:34:53;20.60;73.50
44477;DHT22;30180;44.788;10.366;2022-10-22T01:37:24;20.60;73.50
44477;DHT22;30180;44.788;10.366;2022-10-22T01:39:55;20.60;73.50
44477;DHT22;30180;44.788;10.366;2022-10-22T01:42:24;20.60;73.50
44477;DHT22;30180;44.788;10.366;2022-10-22T01:44:53;20.60;73.40
44477;DHT22;30180;44.788;10.366;2022-10-22T01:47:30;20.60;73.50
44477;DHT22;30180;44.788;10.366;2022-10-22T01:50:19;20.60;73.50
44477;DHT22;30180;44.788;10.366;2022-10-22T01:52:59;20.60;73.50
44477;DHT22;30180;44.788;10.366;2022-10-22T01:55:33;20.60;73.50
44477;DHT22;30180;44.788;10.366;2022-10-22T01:58:18;20.60;73.50
44477;DHT22;30180;44.788;10.366;2022-10-22T02:00:49;20.60;73.50
44477;DHT22;30180;44.788;10.366;2022-10-22T02:03:24;20.60;73.50
44477;DHT22;30180;44.788;10.366;2022-10-22T02:05:55;20.60;73.50
44477;DHT22;30180;44.788;10.366;2022-10-22T02:08:30;20.60;73.50
44477;DHT22;30180;44.788;10.366;2022-10-22T02:10:59;20.60;73.60
44477;DHT22;30180;44.788;10.366;2022-10-22T02:13:32;20.60;73.50
44477;DHT22;30180;44.788;10.366;2022-10-22T02:16:07;20.60;73.50
44477;DHT22;30180;44.788;10.366;2022-10-22T02:18:38;20.60;73.50
44477;DHT22;30180;44.788;10.366;2022-10-22T02:21:07;20.60;73.50
44477;DHT22;30180;44.788;10.366;2022-10-22T02:23:36;20.60;73.50
44477;DHT22;30180;44.788;10.366;2022-10-22T02:26:08;20.60;73.50
44477;DHT22;30180;44.788;10.366;2022-10-22T02:28:42;20.60;73.50
44477;DHT22;30180;44.788;10.366;2022-10-22T02:31:18;20.60;73.60
44477;DHT22;30180;44.788;10.366;2022-10-22T02:33:49;20.60;73.60
44477;DHT22;30180;44.788;10.366;2022-10-22T02:36:19;20.60;73.60
44477;DHT22;30180;44.788;10.366;2022-10-22T02:38:49;20.60;73.60
44477;DHT22;30180;44.788;10.366;2022-10-22T02:41:18;20.60;73.60
44477;DHT22;30180;44.788;10.366;2022-10-22T02:43:49;20.60;73.50
44477;DHT22;30180;44.788;10.366;2022-10-22T02:46:19;20.60;74.20
44477;DHT22;30180;44.788;10.366;2022-10-22T02:48:48;20.60;73.50
44477;DHT22;30180;44.788;10.366;2022-10-22T02:51:16;20.60;73.60
44477;DHT22;30180;44.788;10.366;2022-10-22T02:53:44;20.60;73.60
44477;DHT22;30180;44.788;10.366;2022-10-22T02:56:12;20.60;73.60
44477;DHT22;30180;44.788;10.366;2022-10-22T02:58:41;20.60;73.60
44477;DHT22;30180;44.788;10.366;2022-10-22T03:01:09;20.60;73.60
44477;DHT22;30180;44.788;10.366;2022-10-22T03:03:43;20.60;73.60
44477;DHT22;30180;44.788;10.366;2022-10-22T03:06:11;20.60;73.60
44477;DHT22;30180;44.788;10.366;2022-10-22T03:08:39;20.60;73.60
44477;DHT22;30180;44.788;10.366;2022-10-22T03:11:08;20.60;73.60
44477;DHT22;30180;44.788;10.366;2022-10-22T03:13:36;20.60;73.60
44477;DHT22;30180;44.788;10.366;2022-10-22T03:16:05;20.60;73.60
44477;DHT22;30180;44.788;10.366;2022-10-22T03:18:34;20.60;73.60
44477;DHT22;30180;44.788;10.366;2022-10-22T03:21:09;20.60;73.60
44477;DHT22;30180;44.788;10.366;2022-10-22T03:23:39;20.60;73.60
44477;DHT22;30180;44.788;10.366;2022-10-22T03:26:09;20.60;73.60
44477;DHT22;30180;44.788;10.366;2022-10-22T03:28:40;20.60;73.60
44477;DHT22;30180;44.788;10.366;2022-10-22T03:31:09;20.60;73.60
44477;DHT22;30180;44.788;10.366;2022-10-22T03:33:37;20.60;73.60
44477;DHT22;30180;44.788;10.366;2022-10-22T03:36:08;20.60;73.60
44477;DHT22;30180;44.788;10.366;2022-10-22T03:38:38;20.60;73.60
44477;DHT22;30180;44.788;10.366;2022-10-22T03:41:07;20.60;73.60
44477;DHT22;30180;44.788;10.366;2022-10-22T03:43:36;20.60;73.60
44477;DHT22;30180;44.788;10.366;2022-10-22T03:46:04;20.60;73.60
44477;DHT22;30180;44.788;10.366;2022-10-22T03:48:33;20.60;73.60
44477;DHT22;30180;44.788;10.366;2022-10-22T03:51:01;20.60;73.60
44477;DHT22;30180;44.788;10.366;2022-10-22T03:53:31;20.60;73.60
44477;DHT22;30180;44.788;10.366;2022-10-22T03:55:59;20.60;73.60
44477;DHT22;30180;44.788;10.366;2022-10-22T03:58:27;20.60;73.60
44477;DHT22;30180;44.788;10.366;2022-10-22T04:00:56;20.60;73.60
44477;DHT22;30180;44.788;10.366;2022-10-22T04:03:24;20.60;73.60
44477;DHT22;30180;44.788;10.366;2022-10-22T04:05:52;20.60;73.60
44477;DHT22;30180;44.788;10.366;2022-10-22T04:08:20;20.60;73.60
44477;DHT22;30180;44.788;10.366;2022-10-22T04:10:51;20.60;73.60
44477;DHT22;30180;44.788;10.366;2022-10-22T04:13:19;20.60;73.60
44477;DHT22;30180;44.788;10.366;2022-10-22T04:15:47;20.60;73.60
44477;DHT22;30180;44.788;10.366;2022-10-22T04:18:17;20.60;73.60
44477;DHT22;30180;44.788;10.366;2022-10-22T04:20:46;20.60;73.60
44477;DHT22;30180;44.788;10.366;2022-10-22T04:23:14;20.60;73.60
44477;DHT22;30180;44.788;10.366;2022-10-22T04:25:42;20.60;73.60
44477;DHT22;30180;44.788;10.366;2022-10-22T04:28:12;20.60;73.60
44477;DHT22;30180;44.788;10.366;2022-10-22T04:30:40;20.60;73.60
44477;DHT22;30180;44.788;10.366;2022-10-22T04:33:08;20.60;73.60
44477;DHT22;30180;44.788;10.366;2022-10-22T04:35:37;20.60;73.60
44477;DHT22;30180;44.788;10.366;2022-10-22T04:38:06;20.50;73.50
44477;DHT22;30180;44.788;10.366;2022-10-22T04:40:34;20.60;73.60
44477;DHT22;30180;44.788;10.366;2022-10-22T04:43:03;20.50;73.50
44477;DHT22;30180;44.788;10.366;2022-10-22T04:45:33;20.60;73.60
44477;DHT22;30180;44.788;10.366;2022-10-22T04:48:01;20.60;73.60
44477;DHT22;30180;44.788;10.366;2022-10-22T04:50:30;20.60;73.60
44477;DHT22;30180;44.788;10.366;2022-10-22T04:52:58;20.60;73.60
44477;DHT22;30180;44.788;10.366;2022-10-22T04:55:26;20.60;73.60
44477;DHT22;30180;44.788;10.366;2022-10-22T04:57:59;20.60;73.60
44477;DHT22;30180;44.788;10.366;2022-10-22T05:00:28;20.60;73.60
44477;DHT22;30180;44.788;10.366;2022-10-22T05:02:57;20.60;73.60
44477;DHT22;30180;44.788;10.366;2022-10-22T05:05:26;20.60;73.60
44477;DHT22;30180;44.788;10.366;2022-10-22T05:07:54;20.60;73.60
44477;DHT22;30180;44.788;10.366;2022-10-22T05:10:22;20.60;73.70
44477;DHT22;30180;44.788;10.366;2022-10-22T05:12:50;20.60;73.60
44477;DHT22;30180;44.788;10.366;2022-10-22T05:15:19;20.60;73.60
44477;DHT22;30180;44.788;10.366;2022-10-22T05:17:47;20.50;73.60
44477;DHT22;30180;44.788;10.366;2022-10-22T05:20:16;20.60;73.60
44477;DHT22;30180;44.788;10.366;2022-10-22T05:22:45;20.60;73.60
44477;DHT22;30180;44.788;10.366;2022-10-22T05:25:13;20.50;73.60
44477;DHT22;30180;44.788;10.366;2022-10-22T05:27:41;20.50;73.60
44477;DHT22;30180;44.788;10.366;2022-10-22T05:30:10;20.60;73.70
44477;DHT22;30180;44.788;10.366;2022-10-22T05:32:39;20.50;73.60
44477;DHT22;30180;44.788;10.366;2022-10-22T05:35:07;20.50;73.60
44477;DHT22;30180;44.788;10.366;2022-10-22T05:37:37;20.50;73.60
44477;DHT22;30180;44.788;10.366;2022-10-22T05:40:07;20.60;73.60
44477;DHT22;30180;44.788;10.366;2022-10-22T05:42:52;20.50;73.60
44477;DHT22;30180;44.788;10.366;2022-10-22T05:45:21;20.60;73.60
44477;DHT22;30180;44.788;10.366;2022-10-22T05:47:49;20.50;73.60
44477;DHT22;30180;44.788;10.366;2022-10-22T05:50:17;20.50;73.60
44477;DHT22;30180;44.788;10.366;2022-10-22T05:52:47;20.50;73.60
44477;DHT22;30180;44.788;10.366;2022-10-22T05:55:15;20.50;73.60
44477;DHT22;30180;44.788;10.366;2022-10-22T05:57:43;20.50;73.60
44477;DHT22;30180;44.788;10.366;2022-10-22T06:00:12;20.50;73.60
44477;DHT22;30180;44.788;10.366;2022-10-22T06:02:42;20.50;73.60
44477;DHT22;30180;44.788;10.366;2022-10-22T06:05:11;20.50;73.60
44477;DHT22;30180;44.788;10.366;2022-10-22T06:07:39;20.50;73.60
44477;DHT22;30180;44.788;10.366;2022-10-22T06:10:13;20.50;73.60
44477;DHT22;30180;44.788;10.366;2022-10-22T06:12:42;20.50;73.60
44477;DHT22;30180;44.788;10.366;2022-10-22T06:15:11;20.50;73.60
44477;DHT22;30180;44.788;10.366;2022-10-22T06:17:39;20.50;73.60
44477;DHT22;30180;44.788;10.366;2022-10-22T06:20:09;20.50;73.60
44477;DHT22;30180;44.788;10.366;2022-10-22T06:22:38;20.50;73.60
44477;DHT22;30180;44.788;10.366;2022-10-22T06:25:08;20.50;73.60
44477;DHT22;30180;44.788;10.366;2022-10-22T06:27:38;20.50;73.60
44477;DHT22;30180;44.788;10.366;2022-10-22T06:30:07;20.50;73.60
44477;DHT22;30180;44.788;10.366;2022-10-22T06:32:36;20.50;73.60
44477;DHT22;30180;44.788;10.366;2022-10-22T06:35:05;20.50;73.60
44477;DHT22;30180;44.788;10.366;2022-10-22T06:37:33;20.50;73.60
44477;DHT22;30180;44.788;10.366;2022-10-22T06:40:02;20.50;73.60
44477;DHT22;30180;44.788;10.366;2022-10-22T06:42:32;20.50;73.60
44477;DHT22;30180;44.788;10.366;2022-10-22T06:45:00;20.50;73.60
44477;DHT22;30180;44.788;10.366;2022-10-22T06:47:33;20.50;73.60
44477;DHT22;30180;44.788;10.366;2022-10-22T06:50:01;20.50;73.60
44477;DHT22;30180;44.788;10.366;2022-10-22T06:52:29;20.50;73.60
44477;DHT22;30180;44.788;10.366;2022-10-22T06:54:57;20.50;73.60
44477;DHT22;30180;44.788;10.366;2022-10-22T06:57:26;20.50;73.60
44477;DHT22;30180;44.788;10.366;2022-10-22T06:59:56;20.50;73.60
44477;DHT22;30180;44.788;10.366;2022-10-22T07:02:24;20.50;73.60
44477;DHT22;30180;44.788;10.366;2022-10-22T07:04:52;20.50;73.60
44477;DHT22;30180;44.788;10.366;2022-10-22T07:07:21;20.50;73.60
44477;DHT22;30180;44.788;10.366;2022-10-22T07:09:49;20.50;73.60
44477;DHT22;30180;44.788;10.366;2022-10-22T07:12:17;20.50;73.60
44477;DHT22;30180;44.788;10.366;2022-10-22T07:14:46;20.50;73.60
44477;DHT22;30180;44.788;10.366;2022-10-22T07:17:18;20.50;73.60
44477;DHT22;30180;44.788;10.366;2022-10-22T07:19:46;20.50;73.60
44477;DHT22;30180;44.788;10.366;2022-10-22T07:22:17;20.50;73.60
44477;DHT22;30180;44.788;10.366;2022-10-22T07:24:45;20.50;73.60
44477;DHT22;30180;44.788;10.366;2022-10-22T07:27:14;20.50;73.60
44477;DHT22;30180;44.788;10.366;2022-10-22T07:29:42;20.50;73.60
44477;DHT22;30180;44.788;10.366;2022-10-22T07:32:11;20.50;73.60
44477;DHT22;30180;44.788;10.366;2022-10-22T07:34:40;20.50;73.60
44477;DHT22;30180;44.788;10.366;2022-10-22T07:37:09;20.50;73.60
44477;DHT22;30180;44.788;10.366;2022-10-22T07:39:38;20.50;73.60
44477;DHT22;30180;44.788;10.366;2022-10-22T07:42:06;20.50;73.60
44477;DHT22;30180;44.788;10.366;2022-10-22T07:44:34;20.50;73.70
44477;DHT22;30180;44.788;10.366;2022-10-22T07:47:03;20.50;73.70
44477;DHT22;30180;44.788;10.366;2022-10-22T07:49:31;20.50;73.60
44477;DHT22;30180;44.788;10.366;2022-10-22T07:52:01;20.50;73.60
44477;DHT22;30180;44.788;10.366;2022-10-22T07:54:29;20.50;73.60
44477;DHT22;30180;44.788;10.366;2022-10-22T07:56:57;20.50;73.70
44477;DHT22;30180;44.788;10.366;2022-10-22T07:59:26;20.50;73.70
44477;DHT22;30180;44.788;10.366;2022-10-22T08:01:54;20.50;73.70
44477;DHT22;30180;44.788;10.366;2022-10-22T08:04:22;20.50;73.70
44477;DHT22;30180;44.788;10.366;2022-10-22T08:06:50;20.50;73.70
44477;DHT22;30180;44.788;10.366;2022-10-22T08:09:20;20.50;73.70
44477;DHT22;30180;44.788;10.366;2022-10-22T08:11:48;20.50;73.70
44477;DHT22;30180;44.788;10.366;2022-10-22T08:14:17;20.50;73.70
44477;DHT22;30180;44.788;10.366;2022-10-22T08:16:45;20.50;73.70
44477;DHT22;30180;44.788;10.366;2022-10-22T08:19:14;20.50;73.70
44477;DHT22;30180;44.788;10.366;2022-10-22T08:21:44;20.50;73.70
44477;DHT22;30180;44.788;10.366;2022-10-22T08:24:13;20.50;73.70
44477;DHT22;30180;44.788;10.366;2022-10-22T08:26:43;20.50;73.70
44477;DHT22;30180;44.788;10.366;2022-10-22T08:29:11;20.50;73.70
44477;DHT22;30180;44.788;10.366;2022-10-22T08:31:40;20.50;73.70
44477;DHT22;30180;44.788;10.366;2022-10-22T08:34:08;20.50;73.70
44477;DHT22;30180;44.788;10.366;2022-10-22T08:36:36;20.50;73.70
44477;DHT22;30180;44.788;10.366;2022-10-22T08:39:05;20.50;73.70
44477;DHT22;30180;44.788;10.366;2022-10-22T08:41:35;20.50;73.70
44477;DHT22;30180;44.788;10.366;2022-10-22T08:47:24;20.50;73.70
44477;DHT22;30180;44.788;10.366;2022-10-22T08:49:54;20.50;73.70
44477;DHT22;30180;44.788;10.366;2022-10-22T08:52:23;20.50;73.70
44477;DHT22;30180;44.788;10.366;2022-10-22T08:54:54;20.50;73.70
44477;DHT22;30180;44.788;10.366;2022-10-22T08:57:40;20.50;73.70
44477;DHT22;30180;44.788;10.366;2022-10-22T09:00:17;20.50;73.80
44477;DHT22;30180;44.788;10.366;2022-10-22T09:02:58;20.50;73.70
44477;DHT22;30180;44.788;10.366;2022-10-22T09:05:38;20.50;73.70
44477;DHT22;30180;44.788;10.366;2022-10-22T09:08:10;20.50;73.70
44477;DHT22;30180;44.788;10.366;2022-10-22T09:10:45;20.50;73.70
44477;DHT22;30180;44.788;10.366;2022-10-22T09:13:17;20.50;73.70
44477;DHT22;30180;44.788;10.366;2022-10-22T09:15:50;20.50;73.80
44477;DHT22;30180;44.788;10.366;2022-10-22T09:18:29;20.40;73.70
44477;DHT22;30180;44.788;10.366;2022-10-22T09:21:11;20.50;73.80
44477;DHT22;30180;44.788;10.366;2022-10-22T09:23:54;20.50;73.80
44477;DHT22;30180;44.788;10.366;2022-10-22T09:26:24;20.50;73.70
44477;DHT22;30180;44.788;10.366;2022-10-22T09:28:53;20.50;73.70
44477;DHT22;30180;44.788;10.366;2022-10-22T09:31:21;20.50;73.70
44477;DHT22;30180;44.788;10.366;2022-10-22T09:33:51;20.50;73.70
44477;DHT22;30180;44.788;10.366;2022-10-22T09:36:21;20.50;73.70
44477;DHT22;30180;44.788;10.366;2022-10-22T09:38:51;20.50;73.80
44477;DHT22;30180;44.788;10.366;2022-10-22T09:41:23;20.50;73.80
44477;DHT22;30180;44.788;10.366;2022-10-22T09:43:52;20.50;73.80
44477;DHT22;30180;44.788;10.366;2022-10-22T09:46:22;20.50;73.80
44477;DHT22;30180;44.788;10.366;2022-10-22T09:48:56;20.50;73.80
44477;DHT22;30180;44.788;10.366;2022-10-22T09:51:36;20.40;73.70
44477;DHT22;30180;44.788;10.366;2022-10-22T09:54:15;20.50;73.80
44477;DHT22;30180;44.788;10.366;2022-10-22T09:56:49;20.50;74.40
44477;DHT22;30180;44.788;10.366;2022-10-22T09:59:25;20.40;73.70
44477;DHT22;30180;44.788;10.366;2022-10-22T10:02:05;20.50;73.80
44477;DHT22;30180;44.788;10.366;2022-10-22T10:05:01;20.50;73.80
44477;DHT22;30180;44.788;10.366;2022-10-22T10:07:31;20.50;73.80
44477;DHT22;30180;44.788;10.366;2022-10-22T10:10:00;20.50;73.80
44477;DHT22;30180;44.788;10.366;2022-10-22T10:12:35;20.50;73.80
44477;DHT22;30180;44.788;10.366;2022-10-22T10:15:15;20.50;73.80
44477;DHT22;30180;44.788;10.366;2022-10-22T10:17:56;20.50;73.80
44477;DHT22;30180;44.788;10.366;2022-10-22T10:20:39;20.40;73.80
44477;DHT22;30180;44.788;10.366;2022-10-22T10:23:17;20.50;73.90
44477;DHT22;30180;44.788;10.366;2022-10-22T10:25:56;20.40;73.80
44477;DHT22;30180;44.788;10.366;2022-10-22T10:29:00;20.40;73.80
44477;DHT22;30180;44.788;10.366;2022-10-22T10:31:37;20.50;73.90
44477;DHT22;30180;44.788;10.366;2022-10-22T10:34:15;20.40;73.80
44477;DHT22;30180;44.788;10.366;2022-10-22T10:36:53;20.40;73.80
44477;DHT22;30180;44.788;10.366;2022-10-22T10:39:33;20.40;73.90
44477;DHT22;30180;44.788;10.366;2022-10-22T10:42:12;20.40;73.90
44477;DHT22;30180;44.788;10.366;2022-10-22T10:45:07;20.40;73.80
44477;DHT22;30180;44.788;10.366;2022-10-22T10:48:09;20.50;73.90
44477;DHT22;30180;44.788;10.366;2022-10-22T10:50:50;20.50;73.90
44477;DHT22;30180;44.788;10.366;2022-10-22T10:53:29;20.50;73.90
44477;DHT22;30180;44.788;10.366;2022-10-22T10:56:06;20.50;73.90
44477;DHT22;30180;44.788;10.366;2022-10-22T10:58:44;20.40;73.90
44477;DHT22;30180;44.788;10.366;2022-10-22T11:01:26;20.40;73.90
44477;DHT22;30180;44.788;10.366;2022-10-22T11:04:41;20.50;73.90
44477;DHT22;30180;44.788;10.366;2022-10-22T11:07:14;20.40;73.90
44477;DHT22;30180;44.788;10.366;2022-10-22T11:10:07;20.50;73.90
44477;DHT22;30180;44.788;10.366;2022-10-22T11:12:40;20.50;73.90
44477;DHT22;30180;44.788;10.366;2022-10-22T11:15:15;20.40;73.90
44477;DHT22;30180;44.788;10.366;2022-10-22T11:17:47;20.50;73.90
44477;DHT22;30180;44.788;10.366;2022-10-22T11:20:18;20.40;73.90
44477;DHT22;30180;44.788;10.366;2022-10-22T11:22:53;20.50;73.90
44477;DHT22;30180;44.788;10.366;2022-10-22T11:25:46;20.50;74.00
44477;DHT22;30180;44.788;10.366;2022-10-22T11:28:18;20.40;73.90
44477;DHT22;30180;44.788;10.366;2022-10-22T11:30:53;20.40;74.00
44477;DHT22;30180;44.788;10.366;2022-10-22T11:33:27;20.40;74.00
44477;DHT22;30180;44.788;10.366;2022-10-22T11:35:57;20.50;74.00
44477;DHT22;30180;44.788;10.366;2022-10-22T11:38:26;20.40;74.00
44477;DHT22;30180;44.788;10.366;2022-10-22T11:41:05;20.50;74.00
44477;DHT22;30180;44.788;10.366;2022-10-22T11:43:51;20.40;74.00
44477;DHT22;30180;44.788;10.366;2022-10-22T11:46:33;20.40;74.00
44477;DHT22;30180;44.788;10.366;2022-10-22T11:49:14;20.40;74.00
44477;DHT22;30180;44.788;10.366;2022-10-22T11:51:44;20.40;74.00
44477;DHT22;30180;44.788;10.366;2022-10-22T11:54:36;20.40;74.00
44477;DHT22;30180;44.788;10.366;2022-10-22T11:57:21;20.50;74.10
44477;DHT22;30180;44.788;10.366;2022-10-22T11:59:56;20.50;74.10
44477;DHT22;30180;44.788;10.366;2022-10-22T12:02:41;20.50;74.10
44477;DHT22;30180;44.788;10.366;2022-10-22T12:08:22;20.40;74.00
44477;DHT22;30180;44.788;10.366;2022-10-22T12:11:04;20.40;74.10
44477;DHT22;30180;44.788;10.366;2022-10-22T12:13:54;20.50;74.10
44477;DHT22;30180;44.788;10.366;2022-10-22T12:16:25;20.50;74.10
44477;DHT22;30180;44.788;10.366;2022-10-22T12:19:17;20.40;74.10
44477;DHT22;30180;44.788;10.366;2022-10-22T12:21:47;20.40;74.00
44477;DHT22;30180;44.788;10.366;2022-10-22T12:24:19;20.50;74.10
44477;DHT22;30180;44.788;10.366;2022-10-22T12:26:47;20.40;74.10
44477;DHT22;30180;44.788;10.366;2022-10-22T12:29:20;20.40;74.10
44477;DHT22;30180;44.788;10.366;2022-10-22T12:31:51;20.50;74.10
44477;DHT22;30180;44.788;10.366;2022-10-22T12:34:22;20.40;74.10
44477;DHT22;30180;44.788;10.366;2022-10-22T12:36:51;20.50;74.20
44477;DHT22;30180;44.788;10.366;2022-10-22T12:39:23;20.50;74.20
44477;DHT22;30180;44.788;10.366;2022-10-22T12:41:52;20.50;74.20
44477;DHT22;30180;44.788;10.366;2022-10-22T12:44:22;20.50;74.20
44477;DHT22;30180;44.788;10.366;2022-10-22T12:46:51;20.50;74.30
44477;DHT22;30180;44.788;10.366;2022-10-22T12:49:26;20.50;74.20
44477;DHT22;30180;44.788;10.366;2022-10-22T12:52:01;20.50;74.20
44477;DHT22;30180;44.788;10.366;2022-10-22T12:54:31;20.50;74.20
44477;DHT22;30180;44.788;10.366;2022-10-22T12:57:01;20.50;74.20
44477;DHT22;30180;44.788;10.366;2022-10-22T12:59:33;20.50;74.20
44477;DHT22;30180;44.788;10.366;2022-10-22T13:02:08;20.50;74.20
44477;DHT22;30180;44.788;10.366;2022-10-22T13:04:38;20.50;74.30
44477;DHT22;30180;44.788;10.366;2022-10-22T13:07:18;20.50;74.30
44477;DHT22;30180;44.788;10.366;2022-10-22T13:09:57;20.50;74.30
44477;DHT22;30180;44.788;10.366;2022-10-22T13:12:26;20.50;74.30
44477;DHT22;30180;44.788;10.366;2022-10-22T13:14:56;20.50;74.30
44477;DHT22;30180;44.788;10.366;2022-10-22T13:17:46;20.50;74.30
44477;DHT22;30180;44.788;10.366;2022-10-22T13:20:19;20.50;74.30
44477;DHT22;30180;44.788;10.366;2022-10-22T13:22:56;20.40;74.30
44477;DHT22;30180;44.788;10.366;2022-10-22T13:25:28;20.50;74.30
44477;DHT22;30180;44.788;10.366;2022-10-22T13:27:58;20.50;74.40
44477;DHT22;30180;44.788;10.366;2022-10-22T13:30:31;20.40;74.30
44477;DHT22;30180;44.788;10.366;2022-10-22T13:33:01;20.50;74.30
44477;DHT22;30180;44.788;10.366;2022-10-22T13:35:32;20.50;74.30
44477;DHT22;30180;44.788;10.366;2022-10-22T13:38:01;20.50;74.30
44477;DHT22;30180;44.788;10.366;2022-10-22T13:40:29;20.50;74.30
44477;DHT22;30180;44.788;10.366;2022-10-22T13:42:57;20.40;74.30
44477;DHT22;30180;44.788;10.366;2022-10-22T13:45:25;20.40;74.30
44477;DHT22;30180;44.788;10.366;2022-10-22T13:47:56;20.50;74.40
44477;DHT22;30180;44.788;10.366;2022-10-22T13:50:24;20.50;74.40
44477;DHT22;30180;44.788;10.366;2022-10-22T13:52:54;20.50;74.40
44477;DHT22;30180;44.788;10.366;2022-10-22T13:55:26;20.50;74.40
44477;DHT22;30180;44.788;10.366;2022-10-22T14:02:18;20.50;74.40
44477;DHT22;30180;44.788;10.366;2022-10-22T14:04:51;20.40;74.40
44477;DHT22;30180;44.788;10.366;2022-10-22T14:07:20;20.40;74.40
44477;DHT22;30180;44.788;10.366;2022-10-22T14:09:51;20.50;74.50
44477;DHT22;30180;44.788;10.366;2022-10-22T14:12:19;20.50;74.50
44477;DHT22;30180;44.788;10.366;2022-10-22T14:14:48;20.40;74.40
44477;DHT22;30180;44.788;10.366;2022-10-22T14:17:16;20.50;74.50
44477;DHT22;30180;44.788;10.366;2022-10-22T14:19:46;20.50;75.10
44477;DHT22;30180;44.788;10.366;2022-10-22T14:22:18;20.50;74.50
44477;DHT22;30180;44.788;10.366;2022-10-22T14:24:49;20.50;74.50
44477;DHT22;30180;44.788;10.366;2022-10-22T14:27:17;20.50;74.50
44477;DHT22;30180;44.788;10.366;2022-10-22T14:29:46;20.50;74.50
44477;DHT22;30180;44.788;10.366;2022-10-22T14:32:16;20.50;74.50
44477;DHT22;30180;44.788;10.366;2022-10-22T14:34:46;20.50;74.50
44477;DHT22;30180;44.788;10.366;2022-10-22T14:37:18;20.50;74.50
44477;DHT22;30180;44.788;10.366;2022-10-22T14:39:47;20.50;74.50
44477;DHT22;30180;44.788;10.366;2022-10-22T14:42:18;20.50;74.50
44477;DHT22;30180;44.788;10.366;2022-10-22T14:44:47;20.50;74.60
44477;DHT22;30180;44.788;10.366;2022-10-22T14:47:15;20.50;74.50
44477;DHT22;30180;44.788;10.366;2022-10-22T14:49:43;20.50;74.60
44477;DHT22;30180;44.788;10.366;2022-10-22T14:52:11;20.50;74.50
44477;DHT22;30180;44.788;10.366;2022-10-22T14:54:42;20.50;74.50
44477;DHT22;30180;44.788;10.366;2022-10-22T14:57:10;20.50;74.60
44477;DHT22;30180;44.788;10.366;2022-10-22T14:59:40;20.50;74.60
44477;DHT22;30180;44.788;10.366;2022-10-22T15:02:11;20.50;74.60
44477;DHT22;30180;44.788;10.366;2022-10-22T15:04:40;20.50;74.60
44477;DHT22;30180;44.788;10.366;2022-10-22T15:07:08;20.50;74.60
44477;DHT22;30180;44.788;10.366;2022-10-22T15:09:41;20.50;74.60
44477;DHT22;30180;44.788;10.366;2022-10-22T15:12:09;20.50;74.60
44477;DHT22;30180;44.788;10.366;2022-10-22T15:14:38;20.50;74.60
44477;DHT22;30180;44.788;10.366;2022-10-22T15:17:06;20.50;74.60
44477;DHT22;30180;44.788;10.366;2022-10-22T15:19:34;20.50;74.60
44477;DHT22;30180;44.788;10.366;2022-10-22T15:22:02;20.50;74.60
44477;DHT22;30180;44.788;10.366;2022-10-22T15:24:31;20.50;74.60
44477;DHT22;30180;44.788;10.366;2022-10-22T15:27:01;20.50;74.70
44477;DHT22;30180;44.788;10.366;2022-10-22T15:29:30;20.50;74.60
44477;DHT22;30180;44.788;10.366;2022-10-22T15:31:58;20.50;74.70
44477;DHT22;30180;44.788;10.366;2022-10-22T15:34:32;20.50;74.70
44477;DHT22;30180;44.788;10.366;2022-10-22T15:37:02;20.50;74.70
44477;DHT22;30180;44.788;10.366;2022-10-22T15:39:31;20.50;74.70
44477;DHT22;30180;44.788;10.366;2022-10-22T15:42:01;20.50;74.70
44477;DHT22;30180;44.788;10.366;2022-10-22T15:44:30;20.50;74.70
44477;DHT22;30180;44.788;10.366;2022-10-22T15:46:58;20.50;74.70
44477;DHT22;30180;44.788;10.366;2022-10-22T15:49:28;20.50;74.70
44477;DHT22;30180;44.788;10.366;2022-10-22T15:51:56;20.50;74.70
44477;DHT22;30180;44.788;10.366;2022-10-22T15:54:26;20.50;74.70